Time;durP1;ratioP1;P1;durP2;ratioP2;P2;SDS_P1;SDS_P2;PMS_P1;PMS_P2;Temp;Humidity;BMP_temperature;BMP_pressure;BME280_temperature;BME280_humidity;BME280_pressure;Samples;Min_cycle;Max_cycle;Signal;HPM_P1;HPM_P2
2021/10/21 13:47:53;;;;;;;13.10;0.80;;;16.30;99.90;;;;;;2172648;54;20075;31
2021/10/21 13:50:26;;;;;;;11.30;1.30;;;16.00;99.90;;;;;;2626934;53;20917;31
2021/10/21 13:52:58;;;;;;;18.00;1.00;;;15.80;99.90;;;;;;2588932;54;20973;31
2021/10/21 13:55:27;;;;;;;10.10;0.40;;;15.60;99.90;;;;;;2588229;54;20892;31
2021/10/21 13:57:56;;;;;;;21.17;1.10;;;15.60;99.90;;;;;;2589591;46;20089;31
2021/10/21 14:00:25;;;;;;;20.85;1.00;;;15.50;99.90;;;;;;2589423;46;20038;31
2021/10/21 14:02:55;;;;;;;2.00;0.20;;;15.50;99.90;;;;;;2589300;46;20037;31
2021/10/21 14:05:26;;;;;;;8.43;0.38;;;15.40;99.90;;;;;;2588380;54;20026;31
2021/10/21 14:07:57;;;;;;;10.93;0.50;;;15.30;99.90;;;;;;2588706;46;20931;31
2021/10/21 14:10:31;;;;;;;16.95;1.25;;;15.20;99.90;;;;;;2588363;54;20125;31
2021/10/21 14:16:30;;;;;;;4.40;0.47;;;15.10;99.90;;;;;;2635406;54;20074;-92
2021/10/21 14:19:11;;;;;;;7.75;0.50;;;15.10;99.90;;;;;;2600967;38;20390;31
2021/10/21 14:21:47;;;;;;;5.00;0.50;;;15.00;99.90;;;;;;2588369;54;20090;31
2021/10/21 14:24:34;;;;;;;5.90;0.40;;;15.00;99.90;;;;;;2588489;46;20077;31
2021/10/21 14:27:11;;;;;;;9.38;0.70;;;14.90;99.90;;;;;;2588747;54;20046;31
2021/10/21 14:29:43;;;;;;;5.55;0.32;;;14.90;99.90;;;;;;2588651;54;20090;31
2021/10/21 14:32:18;;;;;;;3.67;0.20;;;14.90;99.90;;;;;;2588866;46;20116;31
2021/10/21 14:34:53;;;;;;;6.18;0.50;;;14.80;99.90;;;;;;2587396;54;20460;31
2021/10/21 14:37:25;;;;;;;6.03;0.35;;;14.80;99.90;;;;;;2589372;46;20022;31
2021/10/21 14:39:55;;;;;;;7.93;1.73;;;14.80;99.90;;;;;;2589377;46;21002;31
2021/10/21 14:42:29;;;;;;;3.58;0.20;;;14.90;99.90;;;;;;2586828;46;20065;31
2021/10/21 14:44:59;;;;;;;2.95;0.40;;;14.80;99.90;;;;;;2585804;46;20112;31
2021/10/21 14:47:47;;;;;;;8.30;0.63;;;14.70;99.90;;;;;;2586116;54;21372;31
2021/10/21 14:50:17;;;;;;;6.55;0.40;;;14.70;99.90;;;;;;2585622;46;20812;31
2021/10/21 14:52:47;;;;;;;3.42;0.68;;;14.70;99.90;;;;;;2585714;46;21228;31
2021/10/21 14:55:18;;;;;;;7.13;1.15;;;14.60;99.90;;;;;;2585761;46;20081;31
2021/10/21 14:57:49;;;;;;;3.70;0.35;;;14.60;99.90;;;;;;2643999;39;20943;31
2021/10/21 15:03:23;;;;;;;2.97;0.73;;;14.50;99.90;;;;;;2585298;46;20874;31
2021/10/21 15:06:06;;;;;;;2.40;0.57;;;14.60;99.90;;;;;;2585657;46;20132;31
2021/10/21 15:22:52;;;;;;;9.40;0.90;;;14.20;99.90;;;;;;2585478;46;20089;31
2021/10/21 15:25:22;;;;;;;2.80;0.60;;;14.20;99.90;;;;;;2585777;46;20939;31
2021/10/21 15:27:56;;;;;;;2.53;0.52;;;14.10;99.90;;;;;;2585036;54;20945;31
2021/10/21 15:30:27;;;;;;;6.30;0.90;;;14.10;99.90;;;;;;2585609;46;20034;31
2021/10/21 15:32:56;;;;;;;2.50;0.60;;;14.10;99.90;;;;;;2585712;46;20188;31
2021/10/21 15:35:27;;;;;;;5.72;0.65;;;14.10;99.90;;;;;;2585335;46;20046;31
2021/10/21 15:37:57;;;;;;;8.80;0.85;;;14.10;99.90;;;;;;2585559;46;20026;31
2021/10/21 15:40:26;;;;;;;6.85;0.70;;;14.10;99.90;;;;;;2585991;46;21766;31
2021/10/21 15:42:55;;;;;;;8.50;0.88;;;14.10;99.90;;;;;;2597482;39;22246;31
2021/10/21 15:45:38;;;;;;;6.55;0.55;;;14.20;99.90;;;;;;2585634;46;20817;31
2021/10/21 15:48:14;;;;;;;7.80;0.85;;;14.10;99.90;;;;;;2585020;54;20934;31
2021/10/21 16:11:02;;;;;;;4.87;0.60;;;13.70;99.90;;;;;;2585334;46;20116;31
2021/10/21 16:13:32;;;;;;;2.03;0.52;;;13.60;99.90;;;;;;2585527;46;20815;31
2021/10/21 16:16:04;;;;;;;1.45;0.90;;;13.60;99.90;;;;;;2585518;46;20995;31
2021/10/21 16:18:33;;;;;;;6.10;2.45;;;13.60;99.90;;;;;;2585417;46;20932;31
2021/10/21 16:21:05;;;;;;;5.15;1.60;;;13.70;99.90;;;;;;2585271;46;20865;31
2021/10/21 16:23:39;;;;;;;5.35;0.88;;;13.50;99.90;;;;;;2585532;46;20038;31
2021/10/21 16:28:38;;;;;;;1.70;0.30;;;13.50;99.90;;;;;;2643078;39;20947;31
2021/10/21 16:31:07;;;;;;;2.40;0.65;;;13.40;99.90;;;;;;2585414;46;20980;31
2021/10/21 16:33:36;;;;;;;2.55;0.50;;;13.40;99.90;;;;;;2585223;46;20804;31
2021/10/21 16:36:06;;;;;;;2.72;0.70;;;13.40;99.90;;;;;;2585181;46;20038;31
2021/10/21 16:38:37;;;;;;;6.90;1.50;;;13.40;99.90;;;;;;2585276;46;20078;31
2021/10/21 16:41:11;;;;;;;;;;;13.50;99.90;;;;;;2585222;54;20914;31
2021/10/21 16:43:53;;;;;;;7.47;0.80;;;13.40;99.90;;;;;;2585309;46;19958;31
2021/10/21 16:49:44;;;;;;;5.10;0.77;;;13.30;99.90;;;;;;2585376;54;20880;31
2021/10/21 16:58:42;;;;;;;6.93;1.63;;;13.20;99.90;;;;;;2584967;54;20978;31
2021/10/21 17:01:12;;;;;;;2.35;0.90;;;13.10;99.90;;;;;;2585415;46;20046;31
2021/10/21 17:03:46;;;;;;;6.90;1.10;;;13.10;99.90;;;;;;2585364;46;20030;31
2021/10/21 17:09:19;;;;;;;3.10;1.20;;;13.10;99.90;;;;;;2584777;54;20815;31
2021/10/21 17:12:00;;;;;;;3.80;1.45;;;13.10;99.90;;;;;;2584989;46;20733;31
2021/10/21 17:14:29;;;;;;;2.97;1.33;;;13.00;99.90;;;;;;2585247;46;20264;31
2021/10/21 17:17:05;;;;;;;5.05;1.02;;;13.00;99.90;;;;;;2585169;47;21254;31
2021/10/21 17:19:44;;;;;;;2.70;0.83;;;13.00;99.90;;;;;;2584685;54;20124;31
2021/10/21 17:25:16;;;;;;;2.25;0.80;;;12.90;99.90;;;;;;2584847;54;21143;31
2021/10/21 17:27:46;;;;;;;3.35;1.00;;;12.90;99.90;;;;;;2585156;47;20046;31
2021/10/21 17:30:15;;;;;;;5.25;1.20;;;12.80;99.90;;;;;;2584843;54;20114;31
2021/10/21 17:32:44;;;;;;;2.85;1.10;;;12.90;99.90;;;;;;2584953;47;20967;31
2021/10/21 17:35:13;;;;;;;4.85;1.70;;;12.90;99.90;;;;;;2584614;54;20052;31
2021/10/21 17:37:42;;;;;;;4.55;1.50;;;12.80;99.90;;;;;;2584432;47;20026;31
2021/10/21 17:40:12;;;;;;;2.80;1.07;;;12.80;99.90;;;;;;2585035;47;20837;31
2021/10/21 17:42:42;;;;;;;2.50;1.05;;;12.80;99.90;;;;;;2584937;47;19943;31
2021/10/21 17:45:13;;;;;;;3.73;1.43;;;12.80;99.90;;;;;;2585058;47;20081;31
2021/10/21 17:47:43;;;;;;;2.90;1.05;;;12.70;99.90;;;;;;2585459;47;21770;31
2021/10/21 17:50:12;;;;;;;3.00;1.58;;;12.70;99.90;;;;;;2585035;47;20050;31
2021/10/21 17:52:44;;;;;;;2.90;1.45;;;12.70;99.90;;;;;;2584508;54;20963;31
2021/10/21 17:55:13;;;;;;;9.35;1.50;;;12.70;99.90;;;;;;2585128;47;20031;31
2021/10/21 17:57:45;;;;;;;4.65;1.25;;;12.80;99.90;;;;;;2585165;47;20972;31
2021/10/21 18:00:15;;;;;;;3.55;1.05;;;12.60;99.90;;;;;;2584882;54;21709;31
2021/10/21 18:02:46;;;;;;;2.30;0.90;;;12.60;99.90;;;;;;2584931;47;20833;31
2021/10/21 18:05:16;;;;;;;4.70;1.50;;;12.60;99.90;;;;;;2584633;54;20717;31
2021/10/21 18:07:45;;;;;;;3.22;1.27;;;12.70;99.90;;;;;;2584283;54;21108;31
2021/10/21 18:10:15;;;;;;;4.38;1.00;;;12.60;99.90;;;;;;2584273;54;20050;31
2021/10/21 18:12:50;;;;;;;6.40;1.30;;;12.70;99.90;;;;;;2584403;54;20741;31
2021/10/21 18:15:25;;;;;;;4.25;1.10;;;12.60;99.90;;;;;;2611862;39;21019;31
2021/10/21 18:20:54;;;;;;;2.80;0.65;;;12.60;99.90;;;;;;2584684;54;20958;31
2021/10/21 18:23:32;;;;;;;2.10;0.80;;;12.60;99.90;;;;;;2585302;54;20938;31
2021/10/21 18:26:18;;;;;;;3.80;1.00;;;12.60;99.90;;;;;;2595068;39;20237;31
2021/10/21 18:28:51;;;;;;;2.30;0.90;;;12.60;99.90;;;;;;2585190;54;20888;31
2021/10/21 18:31:30;;;;;;;2.85;1.25;;;12.60;99.90;;;;;;2584787;54;20057;31
2021/10/21 18:34:09;;;;;;;5.30;1.05;;;12.60;99.90;;;;;;2584494;54;20081;31
2021/10/21 18:36:41;;;;;;;2.95;1.00;;;12.60;99.90;;;;;;2585756;46;20022;31
2021/10/21 18:39:13;;;;;;;10.20;1.50;;;12.50;99.90;;;;;;2585101;54;20047;31
2021/10/21 18:41:50;;;;;;;3.30;0.90;;;12.50;99.90;;;;;;2585790;46;20918;31
2021/10/21 18:44:21;;;;;;;3.83;1.48;;;12.50;99.90;;;;;;2585212;54;20866;31
2021/10/21 18:46:54;;;;;;;4.60;1.10;;;12.40;99.90;;;;;;2585548;46;20900;31
2021/10/21 18:49:38;;;;;;;2.37;0.70;;;12.40;99.90;;;;;;2585393;46;20022;31
2021/10/21 18:52:14;;;;;;;6.75;1.10;;;12.40;99.90;;;;;;2585439;46;20292;31
2021/10/21 18:54:49;;;;;;;3.45;1.27;;;12.40;99.90;;;;;;2585249;54;20943;31
2021/10/21 18:57:27;;;;;;;2.80;1.15;;;12.40;99.90;;;;;;2585813;46;20132;31
2021/10/21 18:59:58;;;;;;;3.45;1.00;;;12.50;99.90;;;;;;2584638;54;20932;31
2021/10/21 19:02:27;;;;;;;8.80;1.10;;;12.40;99.90;;;;;;2585650;46;20054;31
2021/10/21 19:04:59;;;;;;;5.80;0.95;;;12.40;99.90;;;;;;2585190;54;20026;31
2021/10/21 19:07:28;;;;;;;3.33;0.80;;;12.40;99.90;;;;;;2585638;46;20799;31
2021/10/21 19:10:01;;;;;;;3.93;1.20;;;12.40;99.90;;;;;;2585077;54;20013;31
2021/10/21 19:12:38;;;;;;;3.90;1.20;;;12.40;99.90;;;;;;2585599;46;20916;31
2021/10/21 19:15:14;;;;;;;5.20;0.90;;;12.40;99.90;;;;;;2585759;46;20964;31
2021/10/21 19:17:48;;;;;;;3.70;1.00;;;12.30;99.90;;;;;;2585069;54;20133;31
2021/10/21 19:20:18;;;;;;;4.57;1.20;;;12.30;99.90;;;;;;2584412;54;20866;31
2021/10/21 19:22:48;;;;;;;3.30;1.20;;;12.30;99.90;;;;;;2585068;54;20043;31
2021/10/21 19:25:18;;;;;;;6.65;1.08;;;12.30;99.90;;;;;;2585344;46;20046;31
2021/10/21 19:27:47;;;;;;;2.80;1.00;;;12.20;99.90;;;;;;2584907;54;20046;31
2021/10/21 19:30:19;;;;;;;2.63;0.73;;;12.20;99.90;;;;;;2585105;54;20145;31
2021/10/21 19:32:51;;;;;;;5.60;0.80;;;12.20;99.90;;;;;;2584848;54;20817;31
2021/10/21 19:35:23;;;;;;;2.97;0.70;;;12.20;99.90;;;;;;2584957;54;20309;31
2021/10/21 19:37:54;;;;;;;4.20;0.80;;;12.20;99.90;;;;;;2585439;46;21588;31
2021/10/21 19:40:25;;;;;;;3.20;0.90;;;12.10;99.90;;;;;;2585567;46;20857;31
2021/10/21 19:42:55;;;;;;;5.32;0.95;;;12.20;99.90;;;;;;2584917;46;20038;31
2021/10/21 19:45:24;;;;;;;3.58;0.80;;;12.20;99.90;;;;;;2584890;54;20989;31
2021/10/21 19:47:53;;;;;;;2.95;0.90;;;12.10;99.90;;;;;;2584653;54;20090;31
2021/10/21 19:50:23;;;;;;;5.80;1.10;;;12.10;99.90;;;;;;2584470;46;20063;31
2021/10/21 19:52:52;;;;;;;4.20;1.05;;;12.10;99.90;;;;;;2593886;39;21534;31
2021/10/21 19:55:22;;;;;;;2.95;0.70;;;12.10;99.90;;;;;;2585267;46;20073;31
2021/10/21 19:57:52;;;;;;;7.30;0.90;;;12.00;99.90;;;;;;2585413;46;20053;31
2021/10/21 20:00:22;;;;;;;4.80;1.00;;;12.00;99.90;;;;;;2585362;46;20796;31
2021/10/21 20:02:51;;;;;;;2.35;0.80;;;12.00;99.90;;;;;;2600515;39;21738;31
2021/10/21 20:05:24;;;;;;;3.10;0.85;;;12.00;99.90;;;;;;2585336;46;20042;31
2021/10/21 20:07:56;;;;;;;2.88;0.70;;;12.00;99.90;;;;;;2585177;46;20875;31
2021/10/21 20:10:31;;;;;;;2.58;0.85;;;12.00;99.90;;;;;;2593752;39;21466;31
2021/10/21 20:13:02;;;;;;;7.90;0.93;;;12.10;99.90;;;;;;2585071;46;20030;31
2021/10/21 20:15:34;;;;;;;4.87;0.80;;;12.10;99.90;;;;;;2600980;39;21467;31
2021/10/21 20:18:05;;;;;;;4.30;0.80;;;12.10;99.90;;;;;;2585299;46;20733;31
2021/10/21 20:20:34;;;;;;;3.70;1.10;;;12.20;99.90;;;;;;2585016;54;20254;31
2021/10/21 20:23:05;;;;;;;2.70;0.60;;;12.20;99.90;;;;;;2585376;46;20026;31
2021/10/21 20:25:37;;;;;;;2.37;1.03;;;12.20;99.90;;;;;;2584959;54;20109;31
2021/10/21 20:28:09;;;;;;;4.07;0.90;;;12.20;99.90;;;;;;2585447;46;20241;31
2021/10/21 20:30:39;;;;;;;3.35;0.90;;;12.30;99.90;;;;;;2584941;54;20038;31
2021/10/21 20:33:13;;;;;;;7.20;1.63;;;12.30;99.90;;;;;;2584577;54;20903;31
2021/10/21 20:35:42;;;;;;;3.75;1.15;;;12.30;99.90;;;;;;2585062;54;22306;31
2021/10/21 20:38:13;;;;;;;2.95;1.50;;;12.40;99.90;;;;;;2585566;46;20831;31
2021/10/21 20:40:44;;;;;;;5.60;1.00;;;12.40;99.90;;;;;;2584657;54;20079;31
2021/10/21 20:43:13;;;;;;;4.60;0.95;;;12.40;99.90;;;;;;2598904;39;22235;31
2021/10/21 20:45:45;;;;;;;6.22;0.50;;;12.40;99.90;;;;;;2585191;46;21589;31
2021/10/21 20:48:16;;;;;;;3.30;0.45;;;12.40;99.90;;;;;;2585291;46;20923;31
2021/10/21 20:50:47;;;;;;;2.87;0.33;;;12.40;99.90;;;;;;2585244;46;20781;31
2021/10/21 20:53:17;;;;;;;11.15;0.80;;;12.30;99.90;;;;;;2584436;54;21082;31
2021/10/21 20:55:46;;;;;;;7.88;0.50;;;12.20;99.90;;;;;;2584710;54;20010;31
2021/10/21 20:58:17;;;;;;;4.57;0.80;;;12.20;99.90;;;;;;2584977;46;20035;31
2021/10/21 21:00:46;;;;;;;11.00;0.60;;;12.20;99.90;;;;;;2585242;46;21277;31
2021/10/21 21:03:18;;;;;;;1.45;0.50;;;12.10;99.90;;;;;;2584507;54;21079;31
2021/10/21 21:05:49;;;;;;;3.78;0.22;;;12.10;99.90;;;;;;2585250;46;20984;31
2021/10/21 21:08:18;;;;;;;1.37;0.30;;;12.00;99.90;;;;;;2584736;54;20033;31
2021/10/21 21:10:48;;;;;;;6.55;0.20;;;11.90;99.90;;;;;;2584337;54;20635;31
2021/10/21 21:13:18;;;;;;;4.13;0.25;;;11.90;99.90;;;;;;2584914;46;20114;31
2021/10/21 21:15:50;;;;;;;4.10;0.57;;;11.90;99.90;;;;;;2584443;54;20109;31
2021/10/21 21:18:20;;;;;;;8.60;0.70;;;11.80;99.90;;;;;;2585057;46;20884;31
2021/10/21 21:20:49;;;;;;;6.25;0.35;;;11.80;99.90;;;;;;2584969;46;20038;31
2021/10/21 21:23:19;;;;;;;10.68;0.73;;;11.80;99.90;;;;;;2584357;54;20932;31
2021/10/21 21:25:50;;;;;;;0.80;0.20;;;11.70;99.90;;;;;;2585024;46;20917;31
2021/10/21 21:28:23;;;;;;;2.17;0.10;;;11.60;99.90;;;;;;2584295;54;20142;31
2021/10/21 21:30:52;;;;;;;3.33;0.30;;;11.60;99.90;;;;;;2584396;54;20903;31
2021/10/21 21:33:22;;;;;;;1.90;0.20;;;11.50;99.90;;;;;;2584602;47;20911;31
2021/10/21 21:35:53;;;;;;;0.90;0.10;;;11.50;99.90;;;;;;2584947;47;20833;31
2021/10/21 21:38:23;;;;;;;0.30;0.10;;;11.40;99.90;;;;;;2584684;47;20105;31
2021/10/21 21:40:52;;;;;;;3.75;0.30;;;11.30;99.90;;;;;;2584784;47;20860;31
2021/10/21 21:43:24;;;;;;;0.70;0.30;;;11.30;99.90;;;;;;2584904;47;20061;31
2021/10/21 21:45:53;;;;;;;3.65;0.20;;;11.30;99.90;;;;;;2584181;54;20078;31
2021/10/21 21:48:22;;;;;;;2.80;0.37;;;11.20;99.90;;;;;;2584075;54;20093;31
2021/10/21 21:50:51;;;;;;;0.90;0.40;;;11.20;99.90;;;;;;2584530;47;20085;31
2021/10/21 21:53:20;;;;;;;1.30;0.30;;;11.10;99.90;;;;;;2585171;47;20023;31
2021/10/21 21:55:51;;;;;;;1.30;0.20;;;11.00;99.90;;;;;;2584737;54;20042;31
2021/10/21 21:58:20;;;;;;;2.10;0.30;;;11.10;99.90;;;;;;2585395;46;20916;31
2021/10/21 22:00:49;;;;;;;1.03;0.53;;;11.00;99.90;;;;;;2584853;54;20061;31
2021/10/21 22:03:21;;;;;;;3.80;0.40;;;11.10;99.90;;;;;;2585547;46;21072;31
2021/10/21 22:05:51;;;;;;;1.33;0.40;;;11.00;99.90;;;;;;2584993;54;20119;31
2021/10/21 22:08:22;;;;;;;2.28;0.20;;;10.90;99.90;;;;;;2585531;46;20026;31
2021/10/21 22:10:56;;;;;;;1.92;0.30;;;10.90;99.90;;;;;;2585201;54;22317;31
2021/10/21 22:13:26;;;;;;;2.10;0.30;;;10.90;99.90;;;;;;2584968;54;20838;31
2021/10/21 22:15:57;;;;;;;1.63;0.35;;;10.90;99.90;;;;;;2584939;54;19934;31
2021/10/21 22:18:29;;;;;;;2.55;0.20;;;10.80;99.90;;;;;;2584849;54;21325;31
2021/10/21 22:21:00;;;;;;;2.80;0.30;;;10.70;99.90;;;;;;2584996;54;20818;31
2021/10/21 22:23:31;;;;;;;2.60;0.50;;;10.70;99.90;;;;;;2585318;46;19989;31
2021/10/21 22:26:01;;;;;;;1.00;0.20;;;10.60;99.90;;;;;;2585345;46;20101;31
2021/10/21 22:28:29;;;;;;;1.33;0.30;;;10.60;99.90;;;;;;2585143;46;20095;31
2021/10/21 22:30:58;;;;;;;2.05;0.30;;;10.50;99.90;;;;;;2584968;54;20060;31
2021/10/21 22:33:27;;;;;;;1.02;0.30;;;10.40;99.90;;;;;;2585042;46;20027;31
2021/10/21 22:35:55;;;;;;;0.93;0.33;;;10.50;99.90;;;;;;2584642;54;20030;31
2021/10/21 22:38:24;;;;;;;0.75;0.40;;;10.40;99.90;;;;;;2585168;46;21040;31
2021/10/21 22:40:54;;;;;;;0.70;0.30;;;10.40;99.90;;;;;;2584568;54;20081;31
2021/10/21 22:43:23;;;;;;;0.30;0.10;;;10.40;99.90;;;;;;2585314;46;20861;31
2021/10/21 22:46:01;;;;;;;1.45;0.30;;;10.40;99.90;;;;;;2585372;46;20894;31
2021/10/21 22:48:31;;;;;;;1.53;0.37;;;10.40;99.90;;;;;;2585243;46;20843;31
2021/10/21 22:51:04;;;;;;;4.40;0.30;;;10.30;99.90;;;;;;2584623;54;20963;31
2021/10/21 22:53:34;;;;;;;1.40;0.35;;;10.30;99.90;;;;;;2584358;54;20908;31
2021/10/21 22:56:03;;;;;;;3.38;0.47;;;10.20;99.90;;;;;;2584085;54;20027;31
2021/10/21 22:58:34;;;;;;;2.65;0.30;;;10.20;99.90;;;;;;2584618;54;20909;31
2021/10/21 23:01:06;;;;;;;3.03;0.40;;;10.10;99.90;;;;;;2584666;54;20030;31
2021/10/21 23:03:37;;;;;;;3.60;0.60;;;10.10;99.90;;;;;;2585109;46;20250;31
2021/10/21 23:06:17;;;;;;;1.40;0.50;;;10.10;99.90;;;;;;2584670;54;20067;31
2021/10/21 23:08:47;;;;;;;3.80;0.70;;;10.10;99.90;;;;;;2584515;54;20042;31
2021/10/21 23:11:16;;;;;;;2.55;0.45;;;9.90;99.90;;;;;;2585225;46;20975;31
2021/10/21 23:13:45;;;;;;;1.70;0.50;;;9.90;99.90;;;;;;2584429;54;20770;31
2021/10/21 23:16:13;;;;;;;1.00;0.85;;;9.80;99.90;;;;;;2585061;46;20982;31
2021/10/21 23:18:42;;;;;;;4.90;0.60;;;9.80;99.90;;;;;;2584926;46;19935;31
2021/10/21 23:21:12;;;;;;;2.50;0.50;;;9.80;99.90;;;;;;2584813;54;20101;31
2021/10/21 23:23:43;;;;;;;3.40;0.67;;;9.70;99.90;;;;;;2585188;46;20774;31
2021/10/21 23:26:11;;;;;;;2.15;0.40;;;9.60;99.90;;;;;;2585044;46;20305;31
2021/10/21 23:28:44;;;;;;;2.53;0.63;;;9.50;99.90;;;;;;2584298;54;20893;31
2021/10/21 23:31:13;;;;;;;3.80;1.00;;;9.50;99.90;;;;;;2584767;54;20895;31
2021/10/21 23:33:42;;;;;;;4.87;0.77;;;9.30;99.90;;;;;;2584352;54;20055;31
2021/10/21 23:36:12;;;;;;;2.30;0.50;;;9.40;99.90;;;;;;2585158;46;20809;31
2021/10/21 23:38:41;;;;;;;3.13;0.70;;;9.30;99.90;;;;;;2584969;46;21149;31
2021/10/21 23:41:09;;;;;;;4.80;0.60;;;9.30;99.90;;;;;;2585156;46;20954;31
2021/10/21 23:43:40;;;;;;;1.90;0.63;;;9.20;99.90;;;;;;2584579;54;20068;31
2021/10/21 23:46:09;;;;;;;4.40;0.60;;;9.20;99.90;;;;;;2584483;54;20026;31
2021/10/21 23:48:38;;;;;;;4.63;0.80;;;9.10;99.90;;;;;;2584243;54;20062;31
2021/10/21 23:51:09;;;;;;;5.90;0.60;;;9.10;99.90;;;;;;2584381;54;20101;31
2021/10/21 23:53:37;;;;;;;4.03;0.80;;;9.00;99.90;;;;;;2584955;46;20950;31
2021/10/21 23:56:11;;;;;;;4.53;0.60;;;9.00;99.90;;;;;;2585041;46;20911;31
2021/10/21 23:58:40;;;;;;;3.93;0.50;;;9.00;99.90;;;;;;2584394;54;20042;31
